createdAt,value
2023-03-22T00:02:05.326Z,17.23
2023-03-22T00:04:32.574Z,19.53
2023-03-22T00:06:58.999Z,20.57
2023-03-22T00:09:25.486Z,19.03
2023-03-22T00:11:52.088Z,19.00
2023-03-22T00:14:18.708Z,19.47
2023-03-22T00:16:46.278Z,21.37
2023-03-22T00:19:12.825Z,21.77
2023-03-22T00:21:39.266Z,20.13
2023-03-22T00:24:06.330Z,18.37
2023-03-22T00:26:32.787Z,23.33
2023-03-22T00:28:59.305Z,18.67
2023-03-22T00:31:25.742Z,20.30
2023-03-22T00:33:52.149Z,18.70
2023-03-22T00:36:18.572Z,21.30
2023-03-22T00:38:45.315Z,20.57
2023-03-22T00:41:13.366Z,20.10
2023-03-22T00:43:40.087Z,20.90
2023-03-22T00:46:06.758Z,22.50
2023-03-22T00:48:33.533Z,21.53
2023-03-22T00:50:59.954Z,20.63
2023-03-22T00:53:26.444Z,20.57
2023-03-22T00:55:52.989Z,19.10
2023-03-22T00:58:19.372Z,21.43
2023-03-22T01:00:46.100Z,24.47
2023-03-22T01:03:14.233Z,20.03
2023-03-22T01:05:40.696Z,22.03
2023-03-22T01:08:09.984Z,21.43
2023-03-22T01:10:37.542Z,24.57
2023-03-22T01:13:04.464Z,17.33
2023-03-22T01:15:30.953Z,20.40
2023-03-22T01:17:57.701Z,22.93
2023-03-22T01:20:24.136Z,25.17
2023-03-22T01:22:50.611Z,23.40
2023-03-22T01:25:17.201Z,25.27
2023-03-22T01:27:43.605Z,23.30
2023-03-22T01:30:10.776Z,21.47
2023-03-22T01:32:37.597Z,21.13
2023-03-22T01:35:05.637Z,22.40
2023-03-22T01:37:32.546Z,22.73
2023-03-22T01:39:59.131Z,23.10
2023-03-22T01:42:26.388Z,22.23
2023-03-22T01:45:38.889Z,25.77
2023-03-22T01:48:10.595Z,23.27
2023-03-22T01:50:38.996Z,22.30
2023-03-22T01:53:07.622Z,27.63
2023-03-22T01:55:34.212Z,26.00
2023-03-22T01:58:01.410Z,22.20
2023-03-22T02:00:27.846Z,21.43
2023-03-22T02:02:54.282Z,22.50
2023-03-22T02:05:22.336Z,22.67
2023-03-22T02:07:49.916Z,19.30
2023-03-22T02:10:22.870Z,21.00
2023-03-22T02:13:01.069Z,22.30
2023-03-22T02:15:40.944Z,20.23
2023-03-22T02:18:30.056Z,22.40
2023-03-22T02:21:18.347Z,23.80
2023-03-22T02:24:18.255Z,22.97
2023-03-22T02:26:50.657Z,23.93
2023-03-22T02:29:26.330Z,22.23
2023-03-22T02:32:11.004Z,22.03
2023-03-22T02:35:07.377Z,19.27
2023-03-22T02:37:38.778Z,19.13
2023-03-22T02:40:11.330Z,19.67
2023-03-22T02:42:43.479Z,23.40
2023-03-22T02:45:34.797Z,23.90
2023-03-22T02:48:18.790Z,22.07
2023-03-22T02:51:01.927Z,22.50
2023-03-22T02:53:34.389Z,17.30
2023-03-22T02:56:02.733Z,19.57
2023-03-22T02:58:30.383Z,19.70
2023-03-22T03:01:00.797Z,19.57
2023-03-22T03:03:30.119Z,17.63
2023-03-22T03:05:59.769Z,18.67
2023-03-22T03:08:26.588Z,18.40
2023-03-22T03:10:53.668Z,17.43
2023-03-22T03:13:20.409Z,18.63
2023-03-22T03:15:52.641Z,18.53
2023-03-22T03:18:28.472Z,15.70
2023-03-22T03:21:00.565Z,16.47
2023-03-22T03:23:34.762Z,14.60
2023-03-22T03:26:08.179Z,18.77
2023-03-22T03:28:57.226Z,18.53
2023-03-22T03:31:35.082Z,21.53
2023-03-22T03:34:23.199Z,16.50
2023-03-22T03:36:59.778Z,14.50
2023-03-22T03:39:28.544Z,20.53
2023-03-22T03:41:55.540Z,18.33
2023-03-22T03:44:22.461Z,17.80
2023-03-22T03:46:49.128Z,16.50
2023-03-22T03:49:16.653Z,17.67
2023-03-22T03:51:53.680Z,15.03
2023-03-22T03:54:20.591Z,17.90
2023-03-22T03:56:47.771Z,14.50
2023-03-22T03:59:18.141Z,16.33
2023-03-22T04:01:52.418Z,18.60
2023-03-22T04:04:26.328Z,17.73
2023-03-22T04:06:56.627Z,18.50
2023-03-22T04:09:24.665Z,18.03
2023-03-22T04:11:51.473Z,13.13
2023-03-22T04:14:17.834Z,16.93
2023-03-22T04:16:44.354Z,14.97
2023-03-22T04:19:11.025Z,18.03
2023-03-22T04:21:37.792Z,16.23
2023-03-22T04:24:04.578Z,14.53
2023-03-22T04:26:31.268Z,18.83
2023-03-22T04:28:58.570Z,16.57
2023-03-22T04:31:28.036Z,13.27
2023-03-22T04:33:55.111Z,14.47
2023-03-22T04:36:22.969Z,18.43
2023-03-22T04:38:50.508Z,14.10
2023-03-22T04:41:17.795Z,15.47
2023-03-22T04:43:46.863Z,16.40
2023-03-22T04:46:14.121Z,18.03
2023-03-22T04:48:41.733Z,17.80
2023-03-22T04:51:10.163Z,17.17
2023-03-22T04:53:40.006Z,14.10
2023-03-22T04:56:08.256Z,13.93
2023-03-22T04:58:36.530Z,13.30
2023-03-22T05:01:03.357Z,13.63
2023-03-22T05:03:29.700Z,13.57
2023-03-22T05:05:57.809Z,17.57
2023-03-22T05:08:25.107Z,15.23
2023-03-22T05:10:56.258Z,15.43
2023-03-22T05:13:24.789Z,12.03
2023-03-22T05:15:52.000Z,17.10
2023-03-22T05:18:24.637Z,18.00
2023-03-22T05:20:51.081Z,14.40
2023-03-22T05:23:19.196Z,13.60
2023-03-22T05:25:47.055Z,14.93
2023-03-22T05:28:14.321Z,14.33
2023-03-22T05:30:44.009Z,14.63
2023-03-22T05:33:10.504Z,16.47
2023-03-22T05:35:39.318Z,18.73
2023-03-22T05:38:06.846Z,18.57
2023-03-22T05:40:33.740Z,12.97
2023-03-22T05:43:00.409Z,18.93
2023-03-22T05:45:26.947Z,14.57
2023-03-22T05:47:53.394Z,13.77
2023-03-22T05:50:21.959Z,15.23
2023-03-22T05:52:48.930Z,19.60
2023-03-22T05:55:19.584Z,15.10
2023-03-22T05:57:46.918Z,19.50
2023-03-22T06:00:16.182Z,16.57
2023-03-22T06:02:43.745Z,16.67
2023-03-22T06:05:11.232Z,17.80
2023-03-22T06:07:38.644Z,16.93
2023-03-22T06:10:06.584Z,17.57
2023-03-22T06:12:33.035Z,19.43
2023-03-22T06:14:59.909Z,15.03
2023-03-22T06:17:26.787Z,16.07
2023-03-22T06:19:54.741Z,19.00
2023-03-22T06:22:21.761Z,16.97
2023-03-22T06:24:48.761Z,18.63
2023-03-22T06:27:15.645Z,17.80
2023-03-22T06:29:42.176Z,16.37
2023-03-22T06:32:08.609Z,19.00
2023-03-22T06:34:35.312Z,16.07
2023-03-22T06:37:01.843Z,14.40
2023-03-22T06:39:28.275Z,14.80
2023-03-22T06:41:54.686Z,15.90
2023-03-22T06:44:22.542Z,16.60
2023-03-22T06:46:49.005Z,19.70
2023-03-22T06:49:16.825Z,17.27
2023-03-22T06:51:43.347Z,16.63
2023-03-22T06:54:09.800Z,18.33
2023-03-22T06:56:36.281Z,15.87
2023-03-22T06:59:02.786Z,16.57
2023-03-22T07:01:29.216Z,13.67
2023-03-22T07:03:55.721Z,13.80
2023-03-22T07:06:22.114Z,17.37
2023-03-22T07:08:50.732Z,16.20
2023-03-22T07:11:18.084Z,13.83
2023-03-22T07:13:45.234Z,13.07
2023-03-22T07:16:11.784Z,16.87
2023-03-22T07:18:38.278Z,15.10
2023-03-22T07:21:04.974Z,13.83
2023-03-22T07:23:31.414Z,17.20
2023-03-22T07:25:59.209Z,16.90
2023-03-22T07:28:25.720Z,19.67
2023-03-22T07:31:07.286Z,15.37
2023-03-22T07:33:33.780Z,16.73
2023-03-22T07:36:00.536Z,15.97
2023-03-22T07:38:27.039Z,12.97
2023-03-22T07:40:54.915Z,16.93
2023-03-22T07:43:21.986Z,14.57
2023-03-22T07:45:49.413Z,14.07
2023-03-22T07:48:16.244Z,13.93
2023-03-22T07:50:43.238Z,11.63
2023-03-22T07:53:10.179Z,13.03
2023-03-22T07:55:37.418Z,15.43
2023-03-22T07:58:04.400Z,12.90
2023-03-22T08:00:31.775Z,13.23
2023-03-22T08:02:58.367Z,9.57
2023-03-22T08:05:25.226Z,11.13
2023-03-22T08:07:54.385Z,14.50
2023-03-22T08:10:20.818Z,13.33
2023-03-22T08:12:47.209Z,13.67
2023-03-22T08:15:13.679Z,11.83
2023-03-22T08:17:40.240Z,14.57
2023-03-22T08:20:09.004Z,11.77
2023-03-22T08:22:36.444Z,9.60
2023-03-22T08:25:04.934Z,11.63
2023-03-22T08:27:31.893Z,12.40
2023-03-22T08:29:58.660Z,11.40
2023-03-22T08:32:25.607Z,11.43
2023-03-22T08:34:52.813Z,10.07
2023-03-22T08:37:22.195Z,8.17
2023-03-22T08:39:48.612Z,9.43
2023-03-22T08:42:15.417Z,7.70
2023-03-22T08:44:41.980Z,13.20
2023-03-22T08:47:08.415Z,10.67
2023-03-22T08:49:34.842Z,10.60
2023-03-22T08:52:01.296Z,10.97
2023-03-22T08:54:33.549Z,11.03
2023-03-22T08:57:00.842Z,9.97
2023-03-22T08:59:27.873Z,8.87
2023-03-22T09:01:54.345Z,9.53
2023-03-22T09:04:21.199Z,10.27
2023-03-22T09:06:47.696Z,6.73
2023-03-22T09:09:14.676Z,11.27
2023-03-22T09:11:42.676Z,6.27
2023-03-22T09:14:09.879Z,13.40
2023-03-22T09:16:36.376Z,10.20
2023-03-22T09:19:02.869Z,8.33
2023-03-22T09:21:32.243Z,14.13
2023-03-22T09:23:58.773Z,8.07
2023-03-22T09:26:25.620Z,10.30
2023-03-22T09:28:52.697Z,9.23
2023-03-22T09:31:20.733Z,9.43
2023-03-22T09:33:49.757Z,8.13
2023-03-22T09:36:16.613Z,9.57
2023-03-22T09:38:43.061Z,10.37
2023-03-22T09:41:21.219Z,13.17
2023-03-22T09:43:57.567Z,9.03
2023-03-22T09:46:45.312Z,6.37
2023-03-22T09:49:18.636Z,7.93
2023-03-22T09:51:47.090Z,11.23
2023-03-22T09:54:21.500Z,8.57
2023-03-22T09:56:56.328Z,6.50
2023-03-22T09:59:40.020Z,6.70
2023-03-22T10:02:34.564Z,8.23
2023-03-22T10:05:12.903Z,9.13
2023-03-22T10:07:52.643Z,8.60
2023-03-22T10:10:21.420Z,7.70
2023-03-22T10:13:01.073Z,4.40
2023-03-22T10:15:49.352Z,8.93
2023-03-22T10:18:25.765Z,8.10
2023-03-22T10:21:01.058Z,4.57
2023-03-22T10:23:32.782Z,8.80
2023-03-22T10:26:01.093Z,7.27
2023-03-22T10:28:41.862Z,6.43
2023-03-22T10:31:14.550Z,8.00
2023-03-22T10:33:50.386Z,8.27
2023-03-22T10:36:19.664Z,6.20
2023-03-22T10:38:49.488Z,7.80
2023-03-22T10:41:18.536Z,9.77
2023-03-22T10:43:46.006Z,6.50
2023-03-22T10:46:19.999Z,5.87
2023-03-22T10:48:48.850Z,8.27
2023-03-22T10:51:23.527Z,9.33
2023-03-22T10:53:51.777Z,5.07
2023-03-22T10:56:20.152Z,6.33
2023-03-22T10:58:47.878Z,7.27
2023-03-22T11:01:17.138Z,5.30
2023-03-22T11:03:46.900Z,8.53
2023-03-22T11:06:20.902Z,5.93
2023-03-22T11:08:52.937Z,7.43
2023-03-22T11:11:28.108Z,7.97
2023-03-22T11:14:04.173Z,6.37
2023-03-22T11:16:33.128Z,7.70
2023-03-22T11:19:02.126Z,6.13
2023-03-22T11:21:31.478Z,9.23
2023-03-22T11:24:02.971Z,7.60
2023-03-22T11:26:35.705Z,9.13
2023-03-22T11:29:13.927Z,7.57
2023-03-22T11:31:56.468Z,6.47
2023-03-22T11:34:26.417Z,7.60
2023-03-22T11:36:56.431Z,5.87
2023-03-22T11:39:26.009Z,6.30
2023-03-22T11:41:52.870Z,6.60
2023-03-22T11:44:21.859Z,4.60
2023-03-22T11:46:50.338Z,4.87
2023-03-22T11:49:17.597Z,6.60
2023-03-22T11:51:44.246Z,7.77
2023-03-22T11:54:17.261Z,6.03
2023-03-22T11:56:47.276Z,7.10
2023-03-22T11:59:30.698Z,8.57
2023-03-22T12:02:18.649Z,8.97
2023-03-22T12:04:48.632Z,7.53
2023-03-22T12:07:22.313Z,7.87
2023-03-22T12:10:11.504Z,7.03
2023-03-22T12:12:56.288Z,8.77
2023-03-22T12:15:24.843Z,8.03
2023-03-22T12:18:12.621Z,8.17
2023-03-22T12:20:55.392Z,7.37
2023-03-22T12:23:31.162Z,7.83
2023-03-22T12:26:09.607Z,8.00
2023-03-22T12:28:56.604Z,6.80
2023-03-22T12:31:31.183Z,6.87
2023-03-22T12:34:00.278Z,6.40
2023-03-22T12:36:47.366Z,9.00
2023-03-22T12:39:23.182Z,8.13
2023-03-22T12:41:50.761Z,7.87
2023-03-22T12:44:19.091Z,7.83
2023-03-22T12:46:51.541Z,9.30
2023-03-22T12:49:28.804Z,6.47
2023-03-22T12:52:03.545Z,8.30
2023-03-22T12:54:30.069Z,11.20
2023-03-22T12:56:56.558Z,6.43
2023-03-22T12:59:27.082Z,6.80
2023-03-22T13:02:00.181Z,8.03
2023-03-22T13:04:48.021Z,8.20
2023-03-22T13:07:14.848Z,8.27
2023-03-22T13:09:42.836Z,5.07
2023-03-22T13:12:22.431Z,8.27
2023-03-22T13:14:50.186Z,8.87
2023-03-22T13:17:24.060Z,8.20
2023-03-22T13:19:55.554Z,4.90
2023-03-22T13:22:49.499Z,7.87
2023-03-22T13:25:19.605Z,7.67
2023-03-22T13:27:46.082Z,9.53
2023-03-22T13:30:21.953Z,5.77
2023-03-22T13:32:54.611Z,9.80
2023-03-22T13:35:25.425Z,8.73
2023-03-22T13:37:52.076Z,6.63
2023-03-22T13:41:00.190Z,5.63
2023-03-22T13:43:33.424Z,8.23
2023-03-22T13:46:09.684Z,7.97
2023-03-22T13:48:49.583Z,8.40
2023-03-22T13:51:22.956Z,8.83
2023-03-22T13:53:56.240Z,7.93
2023-03-22T13:56:53.239Z,6.50
2023-03-22T13:59:27.887Z,9.80
2023-03-22T14:02:22.484Z,9.67
2023-03-22T14:05:11.786Z,5.40
2023-03-22T14:07:45.764Z,7.90
2023-03-22T14:10:38.313Z,9.10
2023-03-22T14:13:17.958Z,11.70
2023-03-22T14:15:53.637Z,13.17
2023-03-22T14:18:25.763Z,6.33
2023-03-22T14:21:01.272Z,11.07
